Sy Avalon — DG3446 — position and weather

sailwx.info

Track history (hours):
 
Tides and Currents Weather Stations Pressure Air Temp Water Temp Dewpoint Dewpoint Depression Visibility Wind Speed Wind Dir Waves Ship Positions

Sy Avalon

Last reported at 2018-Jun-19 15:30 UTC. Time now 2018-Jun-19 15:46 UTC.
Position N 51°01' E 001°47'.

Length 10 m.

Type: Sailing vessel. MMSI: 211124710.

Date/timePositionNaut miles runAvg speedWind from/ knotsBaromVisibWave heightAir tempDewpointWater temp
2018-Jun-19 15:30N 51°01' E 001°47'4 7.4
2018-Jun-19 15:00N 51°01' E 001°41'5 6.5
2018-Jun-19 14:12N 51°04' E 001°33'1 5.8
2018-Jun-19 14:00N 51°04' E 001°31'3 5.4
2018-Jun-19 13:30N 51°05' E 001°27'2 4.6
2018-Jun-19 13:00N 51°06' E 001°24'2 4.1
2018-Jun-19 12:29N 51°06' E 001°21'1 2.6
2018-Jun-19 11:56N 51°07' E 001°19'0 0.0
2018-Jun-19 11:29N 51°07' E 001°19'0 0.0
2018-Jun-19 10:59N 51°07' E 001°19'0 0.0
2018-Jun-19 10:29N 51°07' E 001°19'0 0.0
2018-Jun-19 09:56N 51°07' E 001°19'0 0.0
2018-Jun-19 09:29N 51°07' E 001°19'0 0.0
2018-Jun-19 08:59N 51°07' E 001°19'0 0.0
2018-Jun-19 08:29N 51°07' E 001°19'0 0.0
2018-Jun-19 07:59N 51°07' E 001°19'0 0.0
2018-Jun-19 07:29N 51°07' E 001°19'0 0.0
2018-Jun-19 06:59N 51°07' E 001°19'0 0.0
2018-Jun-19 06:29N 51°07' E 001°19'0 0.0
2018-Jun-19 05:53N 51°07' E 001°19'0 0.0
2018-Jun-19 05:29N 51°07' E 001°19'0 0.0
2018-Jun-19 04:56N 51°07' E 001°19'0 0.0
2018-Jun-19 04:29N 51°07' E 001°19'0 0.0
2018-Jun-19 03:59N 51°07' E 001°19'0 0.0
2018-Jun-19 03:29N 51°07' E 001°19'0 0.0
2018-Jun-19 02:56N 51°07' E 001°19'0 0.0
2018-Jun-19 02:29N 51°07' E 001°19'0 0.0
2018-Jun-19 01:50N 51°07' E 001°19'0 0.0
2018-Jun-19 01:29N 51°07' E 001°19'0 0.0
2018-Jun-19 00:59N 51°07' E 001°19'0 0.0
2018-Jun-19 00:29N 51°07' E 001°19'0 0.0
2018-Jun-18 23:58N 51°07' E 001°19'0 0.0
2018-Jun-18 23:25N 51°07' E 001°19'0 0.0
2018-Jun-18 22:58N 51°07' E 001°19'0 0.0
2018-Jun-18 22:28N 51°07' E 001°19'0 0.0
2018-Jun-18 21:55N 51°07' E 001°19'0 0.0
2018-Jun-18 21:28N 51°07' E 001°19'0 0.0
2018-Jun-18 20:49N 51°07' E 001°19'0 0.0
2018-Jun-18 20:28N 51°07' E 001°19'0 0.0
2018-Jun-18 19:58N 51°07' E 001°19'0 0.0
2018-Jun-18 19:25N 51°07' E 001°19'0 0.0
2018-Jun-18 18:55N 51°07' E 001°19'0 0.0
2018-Jun-18 18:25N 51°07' E 001°19'0 0.0
2018-Jun-18 17:58N 51°07' E 001°19'0 0.0
2018-Jun-18 17:16N 51°07' E 001°19'0 0.0
2018-Jun-18 16:58N 51°07' E 001°19'0 0.0
2018-Jun-18 16:28N 51°07' E 001°19'0 0.0
2018-Jun-18 15:58N 51°07' E 001°19'0 0.0
2018-Jun-18 15:16N 51°07' E 001°19'0 0.0
2018-Jun-18 14:55N 51°07' E 001°19'0 0.0
2018-Jun-18 14:28N 51°07' E 001°19'0 0.0
2018-Jun-18 13:52N 51°07' E 001°19'0 0.0
2018-Jun-18 13:28N 51°07' E 001°19'0 0.0
2018-Jun-18 12:55N 51°07' E 001°19'0 0.0
2018-Jun-18 12:28N 51°07' E 001°19'0 0.0
2018-Jun-18 11:58N 51°07' E 001°19'0 0.0
2018-Jun-18 11:25N 51°07' E 001°19'0 0.0
2018-Jun-18 10:58N 51°07' E 001°19'0 0.0
2018-Jun-18 10:28N 51°07' E 001°19'0 0.0
2018-Jun-18 09:58N 51°07' E 001°19'0 0.0
2018-Jun-18 09:28N 51°07' E 001°19'0 0.0
2018-Jun-18 08:58N 51°07' E 001°19'0 0.0
2018-Jun-18 08:28N 51°07' E 001°19'0 0.0
2018-Jun-18 07:55N 51°07' E 001°19'0 0.0
2018-Jun-18 07:28N 51°07' E 001°19'0 0.0
2018-Jun-18 06:58N 51°07' E 001°19'0 0.0
2018-Jun-18 06:28N 51°07' E 001°19'0 0.0
2018-Jun-18 05:58N 51°07' E 001°19'0 0.0
2018-Jun-18 05:25N 51°07' E 001°19'0 0.0
2018-Jun-18 04:52N 51°07' E 001°19'0 0.0
2018-Jun-18 04:28N 51°07' E 001°19'0 0.0
2018-Jun-18 03:58N 51°07' E 001°19'0 0.0
2018-Jun-18 03:19N 51°07' E 001°19'0 0.0
2018-Jun-18 02:52N 51°07' E 001°19'0 0.0
2018-Jun-18 02:28N 51°07' E 001°19'0 0.0
2018-Jun-18 01:58N 51°07' E 001°19'0 0.0
2018-Jun-18 01:28N 51°07' E 001°19'0 0.0
2018-Jun-18 00:58N 51°07' E 001°19'0 0.0
2018-Jun-18 00:28N 51°07' E 001°19'0 0.0
2018-Jun-17 23:58N 51°07' E 001°19'0 0.0
2018-Jun-17 23:19N 51°07' E 001°19'0 0.0
2018-Jun-17 22:58N 51°07' E 001°19'0 0.0
2018-Jun-17 22:28N 51°07' E 001°19'0 0.0
2018-Jun-17 21:52N 51°07' E 001°19'0 0.0
2018-Jun-17 21:28N 51°07' E 001°19'0 0.0
2018-Jun-17 20:40N 51°07' E 001°19'0 0.0
2018-Jun-17 20:19N 51°07' E 001°19'0 0.0
2018-Jun-17 19:58N 51°07' E 001°19'0 0.0
2018-Jun-17 19:28N 51°07' E 001°19'0 0.0
2018-Jun-17 18:52N 51°07' E 001°19'0 0.0
2018-Jun-17 18:30N 51°07' E 001°19'1 2.3
2018-Jun-17 18:01N 51°06' E 001°19'4 7.0
2018-Jun-17 17:30N 51°03' E 001°16'23 6.7
2018-Jun-17 14:00N 50°49' E 000°46'3 6.1
2018-Jun-17 13:30N 50°48' E 000°42'3 6.3
2018-Jun-17 12:59N 50°47' E 000°37'3 6.8
2018-Jun-17 12:30N 50°45' E 000°32'3 7.0
2018-Jun-17 12:00N 50°44' E 000°27'4 8.0
2018-Jun-17 11:30N 50°44' E 000°21'6 8.9
2018-Jun-17 10:48N 50°43' E 000°11'15 0.6
2018-Jun-16 11:26N 50°47' W 000°11'10 6.9
2018-Jun-16 10:02N 50°43' W 000°25'0 7.5
2018-Jun-16 10:00N 50°43' W 000°26'4 8.0
2018-Jun-16 09:29N 50°43' W 000°32'4 7.6
2018-Jun-16 09:00N 50°42' W 000°38'4 7.4
2018-Jun-16 08:29N 50°42' W 000°44'8 8.1
2018-Jun-16 07:32N 50°43' W 000°56'0 7.0
2018-Jun-16 07:30N 50°43' W 000°56'3 6.4
2018-Jun-16 07:00N 50°44' W 001°01'3 5.6
2018-Jun-16 06:30N 50°44' W 001°05'3 5.9
2018-Jun-16 06:00N 50°45' W 001°10'3 6.1
2018-Jun-16 05:30N 50°46' W 001°15'2 3.9
2018-Jun-16 05:00N 50°46' W 001°18'0 0.1
2018-Jun-16 04:31N 50°46' W 001°18'0 0.0
2018-Jun-16 04:00N 50°46' W 001°18'0 0.0
2018-Jun-16 03:30N 50°46' W 001°18'0 0.0
2018-Jun-16 03:00N 50°46' W 001°18'0 0.0
2018-Jun-16 02:30N 50°46' W 001°18'0 0.0
2018-Jun-16 02:00N 50°46' W 001°18'0 0.0
2018-Jun-16 01:30N 50°46' W 001°18'0 0.0
2018-Jun-16 01:00N 50°46' W 001°18'0 0.0
2018-Jun-16 00:30N 50°46' W 001°18'0 0.0
2018-Jun-16 00:00N 50°46' W 001°18'0 0.0
2018-Jun-15 23:30N 50°46' W 001°18'0 0.0
2018-Jun-15 22:54N 50°46' W 001°18'0 0.0
2018-Jun-15 22:24N 50°46' W 001°18'0 0.0
2018-Jun-15 22:00N 50°46' W 001°18'0 0.0
2018-Jun-15 21:30N 50°46' W 001°18'0 0.0
2018-Jun-15 21:00N 50°46' W 001°18'0 0.0
2018-Jun-15 20:30N 50°46' W 001°18'0 0.0
2018-Jun-15 19:48N 50°46' W 001°18'0 0.0
2018-Jun-15 19:30N 50°46' W 001°18'0 0.0
2018-Jun-15 19:00N 50°46' W 001°18'0 0.0
2018-Jun-15 18:30N 50°46' W 001°18'0 0.0
2018-Jun-15 17:48N 50°46' W 001°18'0 0.0
2018-Jun-15 17:30N 50°46' W 001°18'0 0.0
2018-Jun-15 17:00N 50°46' W 001°18'0 0.0
2018-Jun-15 16:30N 50°46' W 001°18'0 0.0
2018-Jun-15 16:00N 50°46' W 001°18'0 0.0
2018-Jun-15 15:30N 50°46' W 001°18'0 0.0
2018-Jun-15 15:00N 50°46' W 001°18'0 0.0
2018-Jun-15 14:30N 50°46' W 001°18'0 0.0
2018-Jun-15 14:00N 50°46' W 001°18'0 0.0
2018-Jun-15 13:29N 50°46' W 001°18'0 0.0
2018-Jun-15 12:59N 50°46' W 001°18'0 0.0
2018-Jun-15 12:29N 50°46' W 001°18'0 0.0
2018-Jun-15 11:59N 50°46' W 001°18'0 0.0
2018-Jun-15 11:29N 50°46' W 001°18'0 0.0
2018-Jun-15 10:59N 50°46' W 001°18'0 0.0
2018-Jun-15 10:29N 50°46' W 001°18'45 1.2
2018-Jun-13 19:45N 50°34' W 002°27'12 3.1
2018-Jun-13 15:58N 50°27' W 002°41'3 5.7
2018-Jun-13 15:30N 50°26' W 002°45'3 4.9
2018-Jun-13 14:52N 50°25' W 002°49'2 4.3
2018-Jun-13 14:26N 50°24' W 002°52'2 3.9
2018-Jun-13 13:57N 50°23' W 002°55'2 3.3
2018-Jun-13 13:30N 50°23' W 002°57'2 3.7
2018-Jun-13 13:00N 50°22' W 002°60'2 4.1
2018-Jun-13 12:30N 50°21' W 003°03'2 4.4
2018-Jun-13 12:00N 50°21' W 003°06'2 5.0
2018-Jun-13 11:30N 50°20' W 003°09'2 4.8
2018-Jun-13 11:00N 50°19' W 003°13'2 4.6
2018-Jun-13 10:30N 50°18' W 003°16'2 4.9
2018-Jun-13 10:00N 50°17' W 003°20'3 5.7
2018-Jun-13 09:30N 50°16' W 003°24'3 6.0
2018-Jun-13 09:00N 50°15' W 003°28'3 6.0
2018-Jun-13 08:30N 50°14' W 003°33'3 5.9
2018-Jun-13 08:00N 50°13' W 003°37'  
Track history (hours):
 
Tides and Currents Weather Stations Pressure Air Temp Water Temp Dewpoint Dewpoint Depression Visibility Wind Speed Wind Dir Waves Ship Positions

Sy Avalon

Last reported at 2018-Jun-19 15:30 UTC. Time now 2018-Jun-19 15:46 UTC.
Position N 51°01' E 001°47'.

Length 10 m.

Type: Sailing vessel. MMSI: 211124710.

Date/timePositionNaut miles runAvg speedWind from/ knotsBaromVisibWave heightAir tempDewpointWater temp
2018-Jun-19 15:30N 51°01' E 001°47'4 7.4
2018-Jun-19 15:00N 51°01' E 001°41'5 6.5
2018-Jun-19 14:12N 51°04' E 001°33'1 5.8
2018-Jun-19 14:00N 51°04' E 001°31'3 5.4
2018-Jun-19 13:30N 51°05' E 001°27'2 4.6
2018-Jun-19 13:00N 51°06' E 001°24'2 4.1
2018-Jun-19 12:29N 51°06' E 001°21'1 2.6
2018-Jun-19 11:56N 51°07' E 001°19'0 0.0
2018-Jun-19 11:29N 51°07' E 001°19'0 0.0
2018-Jun-19 10:59N 51°07' E 001°19'0 0.0
2018-Jun-19 10:29N 51°07' E 001°19'0 0.0
2018-Jun-19 09:56N 51°07' E 001°19'0 0.0
2018-Jun-19 09:29N 51°07' E 001°19'0 0.0
2018-Jun-19 08:59N 51°07' E 001°19'0 0.0
2018-Jun-19 08:29N 51°07' E 001°19'0 0.0
2018-Jun-19 07:59N 51°07' E 001°19'0 0.0
2018-Jun-19 07:29N 51°07' E 001°19'0 0.0
2018-Jun-19 06:59N 51°07' E 001°19'0 0.0
2018-Jun-19 06:29N 51°07' E 001°19'0 0.0
2018-Jun-19 05:53N 51°07' E 001°19'0 0.0
2018-Jun-19 05:29N 51°07' E 001°19'0 0.0
2018-Jun-19 04:56N 51°07' E 001°19'0 0.0
2018-Jun-19 04:29N 51°07' E 001°19'0 0.0
2018-Jun-19 03:59N 51°07' E 001°19'0 0.0
2018-Jun-19 03:29N 51°07' E 001°19'0 0.0
2018-Jun-19 02:56N 51°07' E 001°19'0 0.0
2018-Jun-19 02:29N 51°07' E 001°19'0 0.0
2018-Jun-19 01:50N 51°07' E 001°19'0 0.0
2018-Jun-19 01:29N 51°07' E 001°19'0 0.0
2018-Jun-19 00:59N 51°07' E 001°19'0 0.0
2018-Jun-19 00:29N 51°07' E 001°19'0 0.0
2018-Jun-18 23:58N 51°07' E 001°19'0 0.0
2018-Jun-18 23:25N 51°07' E 001°19'0 0.0
2018-Jun-18 22:58N 51°07' E 001°19'0 0.0
2018-Jun-18 22:28N 51°07' E 001°19'0 0.0
2018-Jun-18 21:55N 51°07' E 001°19'0 0.0
2018-Jun-18 21:28N 51°07' E 001°19'0 0.0
2018-Jun-18 20:49N 51°07' E 001°19'0 0.0
2018-Jun-18 20:28N 51°07' E 001°19'0 0.0
2018-Jun-18 19:58N 51°07' E 001°19'0 0.0
2018-Jun-18 19:25N 51°07' E 001°19'0 0.0
2018-Jun-18 18:55N 51°07' E 001°19'0 0.0
2018-Jun-18 18:25N 51°07' E 001°19'0 0.0
2018-Jun-18 17:58N 51°07' E 001°19'0 0.0
2018-Jun-18 17:16N 51°07' E 001°19'0 0.0
2018-Jun-18 16:58N 51°07' E 001°19'0 0.0
2018-Jun-18 16:28N 51°07' E 001°19'0 0.0
2018-Jun-18 15:58N 51°07' E 001°19'0 0.0
2018-Jun-18 15:16N 51°07' E 001°19'0 0.0
2018-Jun-18 14:55N 51°07' E 001°19'0 0.0
2018-Jun-18 14:28N 51°07' E 001°19'0 0.0
2018-Jun-18 13:52N 51°07' E 001°19'0 0.0
2018-Jun-18 13:28N 51°07' E 001°19'0 0.0
2018-Jun-18 12:55N 51°07' E 001°19'0 0.0
2018-Jun-18 12:28N 51°07' E 001°19'0 0.0
2018-Jun-18 11:58N 51°07' E 001°19'0 0.0
2018-Jun-18 11:25N 51°07' E 001°19'0 0.0
2018-Jun-18 10:58N 51°07' E 001°19'0 0.0
2018-Jun-18 10:28N 51°07' E 001°19'0 0.0
2018-Jun-18 09:58N 51°07' E 001°19'0 0.0
2018-Jun-18 09:28N 51°07' E 001°19'0 0.0
2018-Jun-18 08:58N 51°07' E 001°19'0 0.0
2018-Jun-18 08:28N 51°07' E 001°19'0 0.0
2018-Jun-18 07:55N 51°07' E 001°19'0 0.0
2018-Jun-18 07:28N 51°07' E 001°19'0 0.0
2018-Jun-18 06:58N 51°07' E 001°19'0 0.0
2018-Jun-18 06:28N 51°07' E 001°19'0 0.0
2018-Jun-18 05:58N 51°07' E 001°19'0 0.0
2018-Jun-18 05:25N 51°07' E 001°19'0 0.0
2018-Jun-18 04:52N 51°07' E 001°19'0 0.0
2018-Jun-18 04:28N 51°07' E 001°19'0 0.0
2018-Jun-18 03:58N 51°07' E 001°19'0 0.0
2018-Jun-18 03:19N 51°07' E 001°19'0 0.0
2018-Jun-18 02:52N 51°07' E 001°19'0 0.0
2018-Jun-18 02:28N 51°07' E 001°19'0 0.0
2018-Jun-18 01:58N 51°07' E 001°19'0 0.0
2018-Jun-18 01:28N 51°07' E 001°19'0 0.0
2018-Jun-18 00:58N 51°07' E 001°19'0 0.0
2018-Jun-18 00:28N 51°07' E 001°19'0 0.0
2018-Jun-17 23:58N 51°07' E 001°19'0 0.0
2018-Jun-17 23:19N 51°07' E 001°19'0 0.0
2018-Jun-17 22:58N 51°07' E 001°19'0 0.0
2018-Jun-17 22:28N 51°07' E 001°19'0 0.0
2018-Jun-17 21:52N 51°07' E 001°19'0 0.0
2018-Jun-17 21:28N 51°07' E 001°19'0 0.0
2018-Jun-17 20:40N 51°07' E 001°19'0 0.0
2018-Jun-17 20:19N 51°07' E 001°19'0 0.0
2018-Jun-17 19:58N 51°07' E 001°19'0 0.0
2018-Jun-17 19:28N 51°07' E 001°19'0 0.0
2018-Jun-17 18:52N 51°07' E 001°19'0 0.0
2018-Jun-17 18:30N 51°07' E 001°19'1 2.3
2018-Jun-17 18:01N 51°06' E 001°19'4 7.0
2018-Jun-17 17:30N 51°03' E 001°16'23 6.7
2018-Jun-17 14:00N 50°49' E 000°46'3 6.1
2018-Jun-17 13:30N 50°48' E 000°42'3 6.3
2018-Jun-17 12:59N 50°47' E 000°37'3 6.8
2018-Jun-17 12:30N 50°45' E 000°32'3 7.0
2018-Jun-17 12:00N 50°44' E 000°27'4 8.0
2018-Jun-17 11:30N 50°44' E 000°21'6 8.9
2018-Jun-17 10:48N 50°43' E 000°11'15 0.6
2018-Jun-16 11:26N 50°47' W 000°11'10 6.9
2018-Jun-16 10:02N 50°43' W 000°25'0 7.5
2018-Jun-16 10:00N 50°43' W 000°26'4 8.0
2018-Jun-16 09:29N 50°43' W 000°32'4 7.6
2018-Jun-16 09:00N 50°42' W 000°38'4 7.4
2018-Jun-16 08:29N 50°42' W 000°44'8 8.1
2018-Jun-16 07:32N 50°43' W 000°56'0 7.0
2018-Jun-16 07:30N 50°43' W 000°56'3 6.4
2018-Jun-16 07:00N 50°44' W 001°01'3 5.6
2018-Jun-16 06:30N 50°44' W 001°05'3 5.9
2018-Jun-16 06:00N 50°45' W 001°10'3 6.1
2018-Jun-16 05:30N 50°46' W 001°15'2 3.9
2018-Jun-16 05:00N 50°46' W 001°18'0 0.1
2018-Jun-16 04:31N 50°46' W 001°18'0 0.0
2018-Jun-16 04:00N 50°46' W 001°18'0 0.0
2018-Jun-16 03:30N 50°46' W 001°18'0 0.0
2018-Jun-16 03:00N 50°46' W 001°18'0 0.0
2018-Jun-16 02:30N 50°46' W 001°18'0 0.0
2018-Jun-16 02:00N 50°46' W 001°18'0 0.0
2018-Jun-16 01:30N 50°46' W 001°18'0 0.0
2018-Jun-16 01:00N 50°46' W 001°18'0 0.0
2018-Jun-16 00:30N 50°46' W 001°18'0 0.0
2018-Jun-16 00:00N 50°46' W 001°18'0 0.0
2018-Jun-15 23:30N 50°46' W 001°18'0 0.0
2018-Jun-15 22:54N 50°46' W 001°18'0 0.0
2018-Jun-15 22:24N 50°46' W 001°18'0 0.0
2018-Jun-15 22:00N 50°46' W 001°18'0 0.0
2018-Jun-15 21:30N 50°46' W 001°18'0 0.0
2018-Jun-15 21:00N 50°46' W 001°18'0 0.0
2018-Jun-15 20:30N 50°46' W 001°18'0 0.0
2018-Jun-15 19:48N 50°46' W 001°18'0 0.0
2018-Jun-15 19:30N 50°46' W 001°18'0 0.0
2018-Jun-15 19:00N 50°46' W 001°18'0 0.0
2018-Jun-15 18:30N 50°46' W 001°18'0 0.0
2018-Jun-15 17:48N 50°46' W 001°18'0 0.0
2018-Jun-15 17:30N 50°46' W 001°18'0 0.0
2018-Jun-15 17:00N 50°46' W 001°18'0 0.0
2018-Jun-15 16:30N 50°46' W 001°18'0 0.0
2018-Jun-15 16:00N 50°46' W 001°18'0 0.0
2018-Jun-15 15:30N 50°46' W 001°18'0 0.0
2018-Jun-15 15:00N 50°46' W 001°18'0 0.0
2018-Jun-15 14:30N 50°46' W 001°18'0 0.0
2018-Jun-15 14:00N 50°46' W 001°18'0 0.0
2018-Jun-15 13:29N 50°46' W 001°18'0 0.0
2018-Jun-15 12:59N 50°46' W 001°18'0 0.0
2018-Jun-15 12:29N 50°46' W 001°18'0 0.0
2018-Jun-15 11:59N 50°46' W 001°18'0 0.0
2018-Jun-15 11:29N 50°46' W 001°18'0 0.0
2018-Jun-15 10:59N 50°46' W 001°18'0 0.0
2018-Jun-15 10:29N 50°46' W 001°18'45 1.2
2018-Jun-13 19:45N 50°34' W 002°27'12 3.1
2018-Jun-13 15:58N 50°27' W 002°41'3 5.7
2018-Jun-13 15:30N 50°26' W 002°45'3 4.9
2018-Jun-13 14:52N 50°25' W 002°49'2 4.3
2018-Jun-13 14:26N 50°24' W 002°52'2 3.9
2018-Jun-13 13:57N 50°23' W 002°55'2 3.3
2018-Jun-13 13:30N 50°23' W 002°57'2 3.7
2018-Jun-13 13:00N 50°22' W 002°60'2 4.1
2018-Jun-13 12:30N 50°21' W 003°03'2 4.4
2018-Jun-13 12:00N 50°21' W 003°06'2 5.0
2018-Jun-13 11:30N 50°20' W 003°09'2 4.8
2018-Jun-13 11:00N 50°19' W 003°13'2 4.6
2018-Jun-13 10:30N 50°18' W 003°16'2 4.9
2018-Jun-13 10:00N 50°17' W 003°20'3 5.7
2018-Jun-13 09:30N 50°16' W 003°24'3 6.0
2018-Jun-13 09:00N 50°15' W 003°28'3 6.0
2018-Jun-13 08:30N 50°14' W 003°33'3 5.9
2018-Jun-13 08:00N 50°13' W 003°37'  

Dump ship's entire track history